sensor_id;sensor_type;location;lat;lon;timestamp;P1;durP1;ratioP1;P2;durP2;ratioP2
1877;SDS011;939;51.426;6.972;2023-04-24T00:01:38;1.53;;;0.83;;
1877;SDS011;939;51.426;6.972;2023-04-24T00:04:05;1.13;;;0.80;;
1877;SDS011;939;51.426;6.972;2023-04-24T00:06:39;6.00;;;1.90;;
1877;SDS011;939;51.426;6.972;2023-04-24T00:09:07;1.50;;;1.00;;
1877;SDS011;939;51.426;6.972;2023-04-24T00:11:35;1.30;;;1.00;;
1877;SDS011;939;51.426;6.972;2023-04-24T00:14:02;1.38;;;1.10;;
1877;SDS011;939;51.426;6.972;2023-04-24T00:16:32;1.30;;;0.93;;
1877;SDS011;939;51.426;6.972;2023-04-24T00:18:58;1.73;;;1.27;;
1877;SDS011;939;51.426;6.972;2023-04-24T00:21:27;1.40;;;1.02;;
1877;SDS011;939;51.426;6.972;2023-04-24T00:23:56;1.20;;;0.90;;
1877;SDS011;939;51.426;6.972;2023-04-24T00:26:23;1.30;;;1.10;;
1877;SDS011;939;51.426;6.972;2023-04-24T00:28:51;1.10;;;0.80;;
1877;SDS011;939;51.426;6.972;2023-04-24T00:31:18;1.55;;;1.20;;
1877;SDS011;939;51.426;6.972;2023-04-24T00:33:45;1.70;;;1.20;;
1877;SDS011;939;51.426;6.972;2023-04-24T00:36:12;2.00;;;1.10;;
1877;SDS011;939;51.426;6.972;2023-04-24T00:38:40;1.20;;;1.00;;
1877;SDS011;939;51.426;6.972;2023-04-24T00:41:08;1.10;;;0.80;;
1877;SDS011;939;51.426;6.972;2023-04-24T00:43:35;1.20;;;0.90;;
1877;SDS011;939;51.426;6.972;2023-04-24T00:46:02;1.20;;;1.00;;
1877;SDS011;939;51.426;6.972;2023-04-24T00:48:29;1.10;;;0.80;;
1877;SDS011;939;51.426;6.972;2023-04-24T00:50:57;1.10;;;0.70;;
1877;SDS011;939;51.426;6.972;2023-04-24T00:53:24;3.17;;;1.77;;
1877;SDS011;939;51.426;6.972;2023-04-24T00:55:51;1.30;;;1.00;;
1877;SDS011;939;51.426;6.972;2023-04-24T00:58:20;1.25;;;1.15;;
1877;SDS011;939;51.426;6.972;2023-04-24T01:00:47;1.30;;;1.10;;
1877;SDS011;939;51.426;6.972;2023-04-24T01:03:18;2.17;;;1.35;;
1877;SDS011;939;51.426;6.972;2023-04-24T01:05:46;1.30;;;1.05;;
1877;SDS011;939;51.426;6.972;2023-04-24T01:08:13;2.25;;;1.13;;
1877;SDS011;939;51.426;6.972;2023-04-24T01:10:41;2.05;;;1.15;;
1877;SDS011;939;51.426;6.972;2023-04-24T01:13:13;1.35;;;0.90;;
1877;SDS011;939;51.426;6.972;2023-04-24T01:15:45;1.30;;;1.20;;
1877;SDS011;939;51.426;6.972;2023-04-24T01:18:17;1.30;;;0.90;;
1877;SDS011;939;51.426;6.972;2023-04-24T01:20:46;1.40;;;1.05;;
1877;SDS011;939;51.426;6.972;2023-04-24T01:23:15;1.70;;;1.35;;
1877;SDS011;939;51.426;6.972;2023-04-24T01:25:44;1.33;;;1.10;;
1877;SDS011;939;51.426;6.972;2023-04-24T01:28:12;1.63;;;1.23;;
1877;SDS011;939;51.426;6.972;2023-04-24T01:30:39;1.50;;;1.40;;
1877;SDS011;939;51.426;6.972;2023-04-24T01:33:06;2.03;;;1.30;;
1877;SDS011;939;51.426;6.972;2023-04-24T01:35:40;1.70;;;1.33;;
1877;SDS011;939;51.426;6.972;2023-04-24T01:38:07;1.20;;;0.85;;
1877;SDS011;939;51.426;6.972;2023-04-24T01:40:35;3.17;;;1.77;;
1877;SDS011;939;51.426;6.972;2023-04-24T01:43:02;2.08;;;1.88;;
1877;SDS011;939;51.426;6.972;2023-04-24T01:45:29;2.00;;;1.63;;
1877;SDS011;939;51.426;6.972;2023-04-24T01:47:56;2.10;;;1.90;;
1877;SDS011;939;51.426;6.972;2023-04-24T01:50:26;1.95;;;1.55;;
1877;SDS011;939;51.426;6.972;2023-04-24T01:52:53;1.55;;;1.20;;
1877;SDS011;939;51.426;6.972;2023-04-24T01:55:20;1.45;;;1.27;;
1877;SDS011;939;51.426;6.972;2023-04-24T01:57:49;3.05;;;1.63;;
1877;SDS011;939;51.426;6.972;2023-04-24T02:00:18;5.88;;;2.85;;
1877;SDS011;939;51.426;6.972;2023-04-24T02:02:45;2.33;;;1.50;;
1877;SDS011;939;51.426;6.972;2023-04-24T02:05:12;3.58;;;2.45;;
1877;SDS011;939;51.426;6.972;2023-04-24T02:07:39;2.28;;;2.08;;
1877;SDS011;939;51.426;6.972;2023-04-24T02:10:09;3.15;;;2.22;;
1877;SDS011;939;51.426;6.972;2023-04-24T02:12:36;2.58;;;2.33;;
1877;SDS011;939;51.426;6.972;2023-04-24T02:15:08;2.92;;;2.60;;
1877;SDS011;939;51.426;6.972;2023-04-24T02:17:35;3.60;;;2.80;;
1877;SDS011;939;51.426;6.972;2023-04-24T02:20:02;3.05;;;2.45;;
1877;SDS011;939;51.426;6.972;2023-04-24T02:22:29;9.13;;;3.08;;
1877;SDS011;939;51.426;6.972;2023-04-24T02:24:56;4.00;;;2.95;;
1877;SDS011;939;51.426;6.972;2023-04-24T02:27:24;4.18;;;3.03;;
1877;SDS011;939;51.426;6.972;2023-04-24T02:29:56;4.80;;;2.28;;
1877;SDS011;939;51.426;6.972;2023-04-24T02:32:25;2.13;;;1.85;;
1877;SDS011;939;51.426;6.972;2023-04-24T02:34:52;12.88;;;2.75;;
1877;SDS011;939;51.426;6.972;2023-04-24T02:37:20;2.83;;;2.10;;
1877;SDS011;939;51.426;6.972;2023-04-24T02:39:49;4.75;;;2.70;;
1877;SDS011;939;51.426;6.972;2023-04-24T02:42:16;2.85;;;2.20;;
1877;SDS011;939;51.426;6.972;2023-04-24T02:44:48;4.20;;;2.70;;
1877;SDS011;939;51.426;6.972;2023-04-24T02:47:18;3.67;;;3.00;;
1877;SDS011;939;51.426;6.972;2023-04-24T02:49:46;7.93;;;5.88;;
1877;SDS011;939;51.426;6.972;2023-04-24T02:52:13;5.10;;;2.30;;
1877;SDS011;939;51.426;6.972;2023-04-24T02:54:41;2.42;;;1.58;;
1877;SDS011;939;51.426;6.972;2023-04-24T02:57:11;3.28;;;2.53;;
1877;SDS011;939;51.426;6.972;2023-04-24T02:59:38;6.75;;;2.60;;
1877;SDS011;939;51.426;6.972;2023-04-24T03:02:05;6.50;;;4.78;;
1877;SDS011;939;51.426;6.972;2023-04-24T03:04:32;2.92;;;2.40;;
1877;SDS011;939;51.426;6.972;2023-04-24T03:07:00;5.45;;;4.53;;
1877;SDS011;939;51.426;6.972;2023-04-24T03:09:27;3.70;;;2.40;;
1877;SDS011;939;51.426;6.972;2023-04-24T03:11:54;5.05;;;2.85;;
1877;SDS011;939;51.426;6.972;2023-04-24T03:14:23;6.57;;;3.20;;
1877;SDS011;939;51.426;6.972;2023-04-24T03:16:50;4.78;;;3.22;;
1877;SDS011;939;51.426;6.972;2023-04-24T03:19:17;5.93;;;2.65;;
1877;SDS011;939;51.426;6.972;2023-04-24T03:21:44;7.18;;;4.05;;
1877;SDS011;939;51.426;6.972;2023-04-24T03:24:12;7.22;;;4.57;;
1877;SDS011;939;51.426;6.972;2023-04-24T03:26:39;4.97;;;3.80;;
1877;SDS011;939;51.426;6.972;2023-04-24T03:29:06;6.97;;;3.55;;
1877;SDS011;939;51.426;6.972;2023-04-24T03:31:33;5.78;;;4.00;;
1877;SDS011;939;51.426;6.972;2023-04-24T03:34:00;6.10;;;3.75;;
1877;SDS011;939;51.426;6.972;2023-04-24T03:36:27;4.07;;;2.75;;
1877;SDS011;939;51.426;6.972;2023-04-24T03:38:55;11.68;;;5.07;;
1877;SDS011;939;51.426;6.972;2023-04-24T03:41:27;3.47;;;2.72;;
1877;SDS011;939;51.426;6.972;2023-04-24T03:43:58;4.03;;;3.65;;
1877;SDS011;939;51.426;6.972;2023-04-24T03:46:25;4.57;;;3.83;;
1877;SDS011;939;51.426;6.972;2023-04-24T03:48:51;1.42;;;1.30;;
1877;SDS011;939;51.426;6.972;2023-04-24T03:51:18;6.35;;;4.90;;
1877;SDS011;939;51.426;6.972;2023-04-24T03:53:45;4.05;;;2.35;;
1877;SDS011;939;51.426;6.972;2023-04-24T03:56:12;9.82;;;3.72;;
1877;SDS011;939;51.426;6.972;2023-04-24T03:58:41;5.30;;;3.47;;
1877;SDS011;939;51.426;6.972;2023-04-24T04:01:08;3.45;;;2.47;;
1877;SDS011;939;51.426;6.972;2023-04-24T04:03:35;4.63;;;4.03;;
1877;SDS011;939;51.426;6.972;2023-04-24T04:06:02;9.40;;;5.55;;
1877;SDS011;939;51.426;6.972;2023-04-24T04:08:29;7.97;;;4.82;;
1877;SDS011;939;51.426;6.972;2023-04-24T04:10:56;4.32;;;3.90;;
1877;SDS011;939;51.426;6.972;2023-04-24T04:13:23;3.53;;;2.90;;
1877;SDS011;939;51.426;6.972;2023-04-24T04:15:51;4.20;;;2.55;;
1877;SDS011;939;51.426;6.972;2023-04-24T04:18:18;4.07;;;2.13;;
1877;SDS011;939;51.426;6.972;2023-04-24T04:20:45;5.07;;;2.72;;
1877;SDS011;939;51.426;6.972;2023-04-24T04:23:12;6.80;;;4.00;;
1877;SDS011;939;51.426;6.972;2023-04-24T04:25:39;6.95;;;3.63;;
1877;SDS011;939;51.426;6.972;2023-04-24T04:28:07;6.95;;;4.75;;
1877;SDS011;939;51.426;6.972;2023-04-24T04:30:35;4.35;;;3.40;;
1877;SDS011;939;51.426;6.972;2023-04-24T04:33:04;7.93;;;4.60;;
1877;SDS011;939;51.426;6.972;2023-04-24T04:35:31;6.88;;;4.97;;
1877;SDS011;939;51.426;6.972;2023-04-24T04:37:58;5.03;;;4.63;;
1877;SDS011;939;51.426;6.972;2023-04-24T04:40:25;4.22;;;3.03;;
1877;SDS011;939;51.426;6.972;2023-04-24T04:42:53;4.30;;;3.17;;
1877;SDS011;939;51.426;6.972;2023-04-24T04:45:20;4.50;;;2.78;;
1877;SDS011;939;51.426;6.972;2023-04-24T04:47:49;5.30;;;4.38;;
1877;SDS011;939;51.426;6.972;2023-04-24T04:50:19;5.28;;;4.03;;
1877;SDS011;939;51.426;6.972;2023-04-24T04:52:47;4.88;;;3.85;;
1877;SDS011;939;51.426;6.972;2023-04-24T04:55:15;5.50;;;3.80;;
1877;SDS011;939;51.426;6.972;2023-04-24T04:57:43;5.68;;;4.55;;
1877;SDS011;939;51.426;6.972;2023-04-24T05:00:10;2.95;;;2.72;;
1877;SDS011;939;51.426;6.972;2023-04-24T05:02:38;3.63;;;2.63;;
1877;SDS011;939;51.426;6.972;2023-04-24T05:05:06;4.22;;;3.08;;
1877;SDS011;939;51.426;6.972;2023-04-24T05:07:35;3.33;;;1.85;;
1877;SDS011;939;51.426;6.972;2023-04-24T05:10:02;3.90;;;3.47;;
1877;SDS011;939;51.426;6.972;2023-04-24T05:12:36;2.25;;;1.50;;
1877;SDS011;939;51.426;6.972;2023-04-24T05:15:03;3.78;;;2.30;;
1877;SDS011;939;51.426;6.972;2023-04-24T05:17:32;4.25;;;2.75;;
1877;SDS011;939;51.426;6.972;2023-04-24T05:20:00;5.88;;;3.67;;
1877;SDS011;939;51.426;6.972;2023-04-24T05:22:30;3.00;;;1.98;;
1877;SDS011;939;51.426;6.972;2023-04-24T05:24:58;5.03;;;3.00;;
1877;SDS011;939;51.426;6.972;2023-04-24T05:27:25;5.05;;;3.78;;
1877;SDS011;939;51.426;6.972;2023-04-24T05:29:52;4.90;;;3.30;;
1877;SDS011;939;51.426;6.972;2023-04-24T05:32:19;5.28;;;2.45;;
1877;SDS011;939;51.426;6.972;2023-04-24T05:34:46;2.97;;;1.90;;
1877;SDS011;939;51.426;6.972;2023-04-24T05:37:13;3.38;;;2.97;;
1877;SDS011;939;51.426;6.972;2023-04-24T05:39:40;5.57;;;5.07;;
1877;SDS011;939;51.426;6.972;2023-04-24T05:42:13;10.00;;;4.57;;
1877;SDS011;939;51.426;6.972;2023-04-24T05:44:40;4.68;;;3.00;;
1877;SDS011;939;51.426;6.972;2023-04-24T05:47:07;7.05;;;3.60;;
1877;SDS011;939;51.426;6.972;2023-04-24T05:49:34;5.05;;;3.40;;
1877;SDS011;939;51.426;6.972;2023-04-24T05:52:01;4.38;;;3.95;;
1877;SDS011;939;51.426;6.972;2023-04-24T05:54:29;3.78;;;3.40;;
1877;SDS011;939;51.426;6.972;2023-04-24T05:56:56;4.00;;;3.17;;
1877;SDS011;939;51.426;6.972;2023-04-24T05:59:24;6.97;;;3.97;;
1877;SDS011;939;51.426;6.972;2023-04-24T06:01:51;3.70;;;3.40;;
1877;SDS011;939;51.426;6.972;2023-04-24T06:04:25;3.75;;;2.75;;
1877;SDS011;939;51.426;6.972;2023-04-24T06:06:52;5.22;;;3.95;;
1877;SDS011;939;51.426;6.972;2023-04-24T06:09:20;4.20;;;3.63;;
1877;SDS011;939;51.426;6.972;2023-04-24T06:11:48;9.73;;;3.35;;
1877;SDS011;939;51.426;6.972;2023-04-24T06:14:17;6.25;;;2.90;;
1877;SDS011;939;51.426;6.972;2023-04-24T06:16:46;3.53;;;2.97;;
1877;SDS011;939;51.426;6.972;2023-04-24T06:19:13;4.75;;;2.47;;
1877;SDS011;939;51.426;6.972;2023-04-24T06:21:40;2.63;;;2.40;;
1877;SDS011;939;51.426;6.972;2023-04-24T06:24:07;2.65;;;2.10;;
1877;SDS011;939;51.426;6.972;2023-04-24T06:26:46;3.17;;;2.88;;
1877;SDS011;939;51.426;6.972;2023-04-24T06:29:13;2.90;;;2.70;;
1877;SDS011;939;51.426;6.972;2023-04-24T06:31:40;5.28;;;3.10;;
1877;SDS011;939;51.426;6.972;2023-04-24T06:34:08;5.40;;;3.45;;
1877;SDS011;939;51.426;6.972;2023-04-24T06:36:35;3.30;;;3.00;;
1877;SDS011;939;51.426;6.972;2023-04-24T06:39:02;4.25;;;3.40;;
1877;SDS011;939;51.426;6.972;2023-04-24T06:41:29;7.50;;;3.05;;
1877;SDS011;939;51.426;6.972;2023-04-24T06:44:05;5.95;;;3.65;;
1877;SDS011;939;51.426;6.972;2023-04-24T06:46:32;4.72;;;2.33;;
1877;SDS011;939;51.426;6.972;2023-04-24T06:48:59;3.30;;;2.55;;
1877;SDS011;939;51.426;6.972;2023-04-24T06:51:28;6.13;;;3.72;;
1877;SDS011;939;51.426;6.972;2023-04-24T06:53:55;2.63;;;2.10;;
1877;SDS011;939;51.426;6.972;2023-04-24T06:56:22;2.78;;;2.15;;
1877;SDS011;939;51.426;6.972;2023-04-24T06:58:50;3.60;;;3.15;;
1877;SDS011;939;51.426;6.972;2023-04-24T07:01:18;4.68;;;3.30;;
1877;SDS011;939;51.426;6.972;2023-04-24T07:03:45;3.22;;;2.35;;
1877;SDS011;939;51.426;6.972;2023-04-24T07:06:13;5.57;;;3.53;;
1877;SDS011;939;51.426;6.972;2023-04-24T07:08:45;4.90;;;3.25;;
1877;SDS011;939;51.426;6.972;2023-04-24T07:11:12;2.78;;;2.15;;
1877;SDS011;939;51.426;6.972;2023-04-24T07:13:39;6.18;;;2.80;;
1877;SDS011;939;51.426;6.972;2023-04-24T07:16:06;1.60;;;1.20;;
1877;SDS011;939;51.426;6.972;2023-04-24T07:18:33;2.78;;;2.10;;
1877;SDS011;939;51.426;6.972;2023-04-24T07:21:01;2.15;;;1.40;;
1877;SDS011;939;51.426;6.972;2023-04-24T07:23:28;2.00;;;1.80;;
1877;SDS011;939;51.426;6.972;2023-04-24T07:25:57;1.60;;;1.30;;
1877;SDS011;939;51.426;6.972;2023-04-24T07:28:24;1.75;;;0.98;;
1877;SDS011;939;51.426;6.972;2023-04-24T07:30:51;1.90;;;1.55;;
1877;SDS011;939;51.426;6.972;2023-04-24T07:33:20;1.50;;;1.27;;
1877;SDS011;939;51.426;6.972;2023-04-24T07:35:47;1.73;;;1.45;;
1877;SDS011;939;51.426;6.972;2023-04-24T07:38:14;2.47;;;1.33;;
1877;SDS011;939;51.426;6.972;2023-04-24T07:40:41;2.10;;;1.20;;
1877;SDS011;939;51.426;6.972;2023-04-24T07:43:10;1.50;;;0.90;;
1877;SDS011;939;51.426;6.972;2023-04-24T07:45:37;1.95;;;1.60;;
1877;SDS011;939;51.426;6.972;2023-04-24T07:48:05;1.63;;;1.15;;
1877;SDS011;939;51.426;6.972;2023-04-24T07:50:34;1.30;;;0.98;;
1877;SDS011;939;51.426;6.972;2023-04-24T07:53:11;1.40;;;1.00;;
1877;SDS011;939;51.426;6.972;2023-04-24T07:55:38;1.25;;;0.80;;
1877;SDS011;939;51.426;6.972;2023-04-24T07:58:07;1.90;;;1.60;;
1877;SDS011;939;51.426;6.972;2023-04-24T08:00:36;1.40;;;1.00;;
1877;SDS011;939;51.426;6.972;2023-04-24T08:03:03;1.10;;;0.70;;
1877;SDS011;939;51.426;6.972;2023-04-24T08:05:33;1.65;;;1.30;;
1877;SDS011;939;51.426;6.972;2023-04-24T08:08:01;1.10;;;0.80;;
1877;SDS011;939;51.426;6.972;2023-04-24T08:10:28;1.20;;;0.80;;
1877;SDS011;939;51.426;6.972;2023-04-24T08:12:55;1.42;;;1.00;;
1877;SDS011;939;51.426;6.972;2023-04-24T08:15:24;1.10;;;0.82;;
1877;SDS011;939;51.426;6.972;2023-04-24T08:17:51;1.48;;;1.00;;
1877;SDS011;939;51.426;6.972;2023-04-24T08:20:18;1.20;;;1.00;;
1877;SDS011;939;51.426;6.972;2023-04-24T08:22:45;1.65;;;1.17;;
1877;SDS011;939;51.426;6.972;2023-04-24T08:25:13;1.50;;;1.10;;
1877;SDS011;939;51.426;6.972;2023-04-24T08:27:44;1.75;;;1.23;;
1877;SDS011;939;51.426;6.972;2023-04-24T08:30:11;1.63;;;1.20;;
1877;SDS011;939;51.426;6.972;2023-04-24T08:32:39;2.05;;;0.93;;
1877;SDS011;939;51.426;6.972;2023-04-24T08:35:06;2.10;;;1.05;;
1877;SDS011;939;51.426;6.972;2023-04-24T08:37:35;1.30;;;1.05;;
1877;SDS011;939;51.426;6.972;2023-04-24T08:40:02;1.20;;;0.98;;
1877;SDS011;939;51.426;6.972;2023-04-24T08:42:34;1.88;;;1.15;;
1877;SDS011;939;51.426;6.972;2023-04-24T08:45:03;1.20;;;1.00;;
1877;SDS011;939;51.426;6.972;2023-04-24T08:47:33;1.30;;;1.10;;
1877;SDS011;939;51.426;6.972;2023-04-24T08:50:03;1.48;;;0.90;;
1877;SDS011;939;51.426;6.972;2023-04-24T08:52:33;1.90;;;1.42;;
1877;SDS011;939;51.426;6.972;2023-04-24T08:55:01;1.33;;;1.23;;
1877;SDS011;939;51.426;6.972;2023-04-24T08:57:28;1.10;;;0.70;;
1877;SDS011;939;51.426;6.972;2023-04-24T08:59:56;1.10;;;0.80;;
1877;SDS011;939;51.426;6.972;2023-04-24T09:02:25;1.63;;;1.08;;
1877;SDS011;939;51.426;6.972;2023-04-24T09:04:52;1.30;;;1.00;;
1877;SDS011;939;51.426;6.972;2023-04-24T09:07:26;1.50;;;1.25;;
1877;SDS011;939;51.426;6.972;2023-04-24T09:09:56;1.10;;;0.80;;
1877;SDS011;939;51.426;6.972;2023-04-24T09:12:23;1.10;;;0.90;;
1877;SDS011;939;51.426;6.972;2023-04-24T09:14:50;1.10;;;0.77;;
1877;SDS011;939;51.426;6.972;2023-04-24T09:17:18;1.20;;;1.10;;
1877;SDS011;939;51.426;6.972;2023-04-24T09:19:47;1.30;;;1.17;;
1877;SDS011;939;51.426;6.972;2023-04-24T09:22:15;1.75;;;1.20;;
1877;SDS011;939;51.426;6.972;2023-04-24T09:24:46;1.50;;;1.20;;
1877;SDS011;939;51.426;6.972;2023-04-24T09:27:15;2.70;;;2.33;;
1877;SDS011;939;51.426;6.972;2023-04-24T09:29:55;5.25;;;3.83;;
1877;SDS011;939;51.426;6.972;2023-04-24T09:32:22;2.65;;;1.60;;
1877;SDS011;939;51.426;6.972;2023-04-24T09:35:04;1.70;;;1.60;;
1877;SDS011;939;51.426;6.972;2023-04-24T09:37:34;2.10;;;1.88;;
1877;SDS011;939;51.426;6.972;2023-04-24T09:40:12;2.20;;;1.33;;
1877;SDS011;939;51.426;6.972;2023-04-24T09:42:43;1.88;;;1.60;;
1877;SDS011;939;51.426;6.972;2023-04-24T09:45:11;1.33;;;1.23;;
1877;SDS011;939;51.426;6.972;2023-04-24T09:47:38;2.33;;;2.00;;
1877;SDS011;939;51.426;6.972;2023-04-24T09:50:10;1.35;;;1.25;;
1877;SDS011;939;51.426;6.972;2023-04-24T09:52:42;1.73;;;1.63;;
1877;SDS011;939;51.426;6.972;2023-04-24T09:55:12;1.42;;;1.10;;
1877;SDS011;939;51.426;6.972;2023-04-24T09:57:49;2.60;;;1.80;;
1877;SDS011;939;51.426;6.972;2023-04-24T10:00:34;2.85;;;2.38;;
1877;SDS011;939;51.426;6.972;2023-04-24T10:03:03;2.47;;;1.48;;
1877;SDS011;939;51.426;6.972;2023-04-24T10:05:31;4.32;;;2.80;;
1877;SDS011;939;51.426;6.972;2023-04-24T10:08:00;5.07;;;3.05;;
1877;SDS011;939;51.426;6.972;2023-04-24T10:10:30;4.75;;;3.22;;
1877;SDS011;939;51.426;6.972;2023-04-24T10:12:58;1.77;;;1.42;;
1877;SDS011;939;51.426;6.972;2023-04-24T10:15:26;5.38;;;3.53;;
1877;SDS011;939;51.426;6.972;2023-04-24T10:17:54;3.33;;;2.22;;
1877;SDS011;939;51.426;6.972;2023-04-24T10:20:24;2.97;;;2.15;;
1877;SDS011;939;51.426;6.972;2023-04-24T10:22:54;5.78;;;3.40;;
1877;SDS011;939;51.426;6.972;2023-04-24T10:25:22;1.05;;;0.70;;
1877;SDS011;939;51.426;6.972;2023-04-24T10:27:56;2.30;;;2.08;;
1877;SDS011;939;51.426;6.972;2023-04-24T10:30:28;2.17;;;1.85;;
1877;SDS011;939;51.426;6.972;2023-04-24T10:33:00;3.30;;;2.92;;
1877;SDS011;939;51.426;6.972;2023-04-24T10:35:27;2.25;;;1.38;;
1877;SDS011;939;51.426;6.972;2023-04-24T10:37:59;1.92;;;1.30;;
1877;SDS011;939;51.426;6.972;2023-04-24T10:40:31;1.65;;;1.48;;
1877;SDS011;939;51.426;6.972;2023-04-24T10:43:01;2.00;;;1.75;;
1877;SDS011;939;51.426;6.972;2023-04-24T10:45:31;2.60;;;1.75;;
1877;SDS011;939;51.426;6.972;2023-04-24T10:47:58;10.18;;;3.92;;
1877;SDS011;939;51.426;6.972;2023-04-24T10:50:27;4.22;;;3.22;;
1877;SDS011;939;51.426;6.972;2023-04-24T10:53:04;2.22;;;2.03;;
1877;SDS011;939;51.426;6.972;2023-04-24T10:55:40;2.30;;;1.50;;
1877;SDS011;939;51.426;6.972;2023-04-24T10:58:10;7.75;;;2.78;;
1877;SDS011;939;51.426;6.972;2023-04-24T11:00:37;6.35;;;3.30;;
1877;SDS011;939;51.426;6.972;2023-04-24T11:03:04;2.95;;;2.28;;
1877;SDS011;939;51.426;6.972;2023-04-24T11:08:26;5.50;;;2.38;;
1877;SDS011;939;51.426;6.972;2023-04-24T11:11:09;4.75;;;3.08;;
1877;SDS011;939;51.426;6.972;2023-04-24T11:16:33;3.53;;;2.92;;
1877;SDS011;939;51.426;6.972;2023-04-24T11:19:04;10.90;;;3.55;;
1877;SDS011;939;51.426;6.972;2023-04-24T11:21:32;13.75;;;2.20;;
1877;SDS011;939;51.426;6.972;2023-04-24T11:26:54;7.45;;;3.30;;
1877;SDS011;939;51.426;6.972;2023-04-24T11:29:23;6.60;;;2.75;;
1877;SDS011;939;51.426;6.972;2023-04-24T11:32:15;5.85;;;2.63;;
1877;SDS011;939;51.426;6.972;2023-04-24T11:34:46;8.88;;;3.47;;
1877;SDS011;939;51.426;6.972;2023-04-24T11:37:17;5.30;;;2.60;;
1877;SDS011;939;51.426;6.972;2023-04-24T11:39:44;5.80;;;2.67;;
1877;SDS011;939;51.426;6.972;2023-04-24T11:42:12;3.67;;;2.15;;
1877;SDS011;939;51.426;6.972;2023-04-24T11:44:44;15.02;;;3.92;;
1877;SDS011;939;51.426;6.972;2023-04-24T11:47:14;1.50;;;1.30;;
1877;SDS011;939;51.426;6.972;2023-04-24T11:49:41;2.55;;;1.60;;
1877;SDS011;939;51.426;6.972;2023-04-24T11:52:09;2.13;;;1.90;;
1877;SDS011;939;51.426;6.972;2023-04-24T11:54:36;1.40;;;1.30;;
1877;SDS011;939;51.426;6.972;2023-04-24T11:57:04;1.80;;;1.50;;
1877;SDS011;939;51.426;6.972;2023-04-24T11:59:35;3.45;;;2.97;;
1877;SDS011;939;51.426;6.972;2023-04-24T12:02:04;6.18;;;2.30;;
1877;SDS011;939;51.426;6.972;2023-04-24T12:04:40;2.38;;;1.60;;
1877;SDS011;939;51.426;6.972;2023-04-24T12:07:07;1.42;;;1.20;;
1877;SDS011;939;51.426;6.972;2023-04-24T12:09:41;1.33;;;1.17;;
1877;SDS011;939;51.426;6.972;2023-04-24T12:12:10;2.05;;;1.85;;
1877;SDS011;939;51.426;6.972;2023-04-24T12:14:44;1.52;;;1.25;;
1877;SDS011;939;51.426;6.972;2023-04-24T12:17:23;2.40;;;2.00;;
1877;SDS011;939;51.426;6.972;2023-04-24T12:19:57;1.90;;;1.55;;
1877;SDS011;939;51.426;6.972;2023-04-24T12:22:27;2.10;;;1.80;;
1877;SDS011;939;51.426;6.972;2023-04-24T12:25:01;2.20;;;1.40;;
1877;SDS011;939;51.426;6.972;2023-04-24T12:27:30;2.10;;;1.80;;
1877;SDS011;939;51.426;6.972;2023-04-24T12:30:17;7.38;;;2.47;;
1877;SDS011;939;51.426;6.972;2023-04-24T12:32:46;1.55;;;1.40;;
1877;SDS011;939;51.426;6.972;2023-04-24T12:35:18;2.03;;;1.35;;
1877;SDS011;939;51.426;6.972;2023-04-24T12:37:46;2.10;;;1.90;;
1877;SDS011;939;51.426;6.972;2023-04-24T12:40:14;2.75;;;1.70;;
1877;SDS011;939;51.426;6.972;2023-04-24T12:42:54;2.30;;;2.00;;
1877;SDS011;939;51.426;6.972;2023-04-24T12:45:21;3.15;;;1.45;;
1877;SDS011;939;51.426;6.972;2023-04-24T12:47:54;3.15;;;2.70;;
1877;SDS011;939;51.426;6.972;2023-04-24T12:50:21;1.23;;;1.00;;
1877;SDS011;939;51.426;6.972;2023-04-24T12:52:51;4.32;;;1.73;;
1877;SDS011;939;51.426;6.972;2023-04-24T12:55:26;2.15;;;1.60;;
1877;SDS011;939;51.426;6.972;2023-04-24T12:58:00;1.40;;;1.27;;
1877;SDS011;939;51.426;6.972;2023-04-24T13:00:43;7.57;;;2.03;;
1877;SDS011;939;51.426;6.972;2023-04-24T13:03:14;2.22;;;1.27;;
1877;SDS011;939;51.426;6.972;2023-04-24T13:05:51;2.80;;;1.60;;
1877;SDS011;939;51.426;6.972;2023-04-24T13:08:18;3.17;;;2.15;;
1877;SDS011;939;51.426;6.972;2023-04-24T13:10:52;1.90;;;1.35;;
1877;SDS011;939;51.426;6.972;2023-04-24T13:13:23;2.00;;;1.80;;
1877;SDS011;939;51.426;6.972;2023-04-24T13:15:52;1.23;;;1.00;;
1877;SDS011;939;51.426;6.972;2023-04-24T13:18:31;2.15;;;1.00;;
1877;SDS011;939;51.426;6.972;2023-04-24T13:21:01;4.47;;;1.75;;
1877;SDS011;939;51.426;6.972;2023-04-24T13:23:31;1.40;;;1.15;;
1877;SDS011;939;51.426;6.972;2023-04-24T13:25:59;2.83;;;1.58;;
1877;SDS011;939;51.426;6.972;2023-04-24T13:28:28;1.42;;;1.20;;
1877;SDS011;939;51.426;6.972;2023-04-24T13:30:56;1.13;;;0.93;;
1877;SDS011;939;51.426;6.972;2023-04-24T13:33:24;1.75;;;1.20;;
1877;SDS011;939;51.426;6.972;2023-04-24T13:35:54;2.10;;;1.23;;
1877;SDS011;939;51.426;6.972;2023-04-24T13:38:21;1.77;;;1.13;;
1877;SDS011;939;51.426;6.972;2023-04-24T13:40:48;2.20;;;2.00;;
1877;SDS011;939;51.426;6.972;2023-04-24T13:43:16;1.20;;;0.80;;
1877;SDS011;939;51.426;6.972;2023-04-24T13:45:43;2.13;;;1.17;;
1877;SDS011;939;51.426;6.972;2023-04-24T13:48:10;1.60;;;1.30;;
1877;SDS011;939;51.426;6.972;2023-04-24T13:50:41;3.58;;;1.40;;
1877;SDS011;939;51.426;6.972;2023-04-24T13:53:13;1.30;;;0.90;;
1877;SDS011;939;51.426;6.972;2023-04-24T13:55:41;1.98;;;1.83;;
1877;SDS011;939;51.426;6.972;2023-04-24T13:58:12;1.20;;;0.90;;
1877;SDS011;939;51.426;6.972;2023-04-24T14:00:44;1.42;;;1.27;;
1877;SDS011;939;51.426;6.972;2023-04-24T14:03:16;1.90;;;0.90;;
1877;SDS011;939;51.426;6.972;2023-04-24T14:05:45;2.83;;;1.63;;
1877;SDS011;939;51.426;6.972;2023-04-24T14:08:13;1.75;;;1.45;;
1877;SDS011;939;51.426;6.972;2023-04-24T14:10:40;1.10;;;1.00;;
1877;SDS011;939;51.426;6.972;2023-04-24T14:13:11;3.83;;;1.33;;
1877;SDS011;939;51.426;6.972;2023-04-24T14:15:39;1.40;;;1.20;;
1877;SDS011;939;51.426;6.972;2023-04-24T14:18:13;1.58;;;1.30;;
1877;SDS011;939;51.426;6.972;2023-04-24T14:20:41;1.67;;;1.33;;
1877;SDS011;939;51.426;6.972;2023-04-24T14:23:11;1.10;;;0.90;;
1877;SDS011;939;51.426;6.972;2023-04-24T14:25:38;1.50;;;1.17;;
1877;SDS011;939;51.426;6.972;2023-04-24T14:28:06;1.70;;;1.40;;
1877;SDS011;939;51.426;6.972;2023-04-24T14:30:33;2.00;;;1.08;;
1877;SDS011;939;51.426;6.972;2023-04-24T14:33:02;1.73;;;1.40;;
1877;SDS011;939;51.426;6.972;2023-04-24T14:35:30;3.80;;;1.60;;
1877;SDS011;939;51.426;6.972;2023-04-24T14:38:00;1.95;;;1.48;;
1877;SDS011;939;51.426;6.972;2023-04-24T14:40:30;1.83;;;1.20;;
1877;SDS011;939;51.426;6.972;2023-04-24T14:42:59;1.30;;;1.02;;
1877;SDS011;939;51.426;6.972;2023-04-24T14:45:26;6.25;;;1.50;;
1877;SDS011;939;51.426;6.972;2023-04-24T14:47:54;1.25;;;1.10;;
1877;SDS011;939;51.426;6.972;2023-04-24T14:50:22;1.85;;;1.02;;
1877;SDS011;939;51.426;6.972;2023-04-24T14:52:53;2.45;;;1.35;;
1877;SDS011;939;51.426;6.972;2023-04-24T14:55:22;1.17;;;1.00;;
1877;SDS011;939;51.426;6.972;2023-04-24T14:57:55;2.10;;;1.45;;
1877;SDS011;939;51.426;6.972;2023-04-24T15:00:24;1.50;;;1.30;;
1877;SDS011;939;51.426;6.972;2023-04-24T15:02:51;2.53;;;1.33;;
1877;SDS011;939;51.426;6.972;2023-04-24T15:05:18;5.13;;;1.35;;
1877;SDS011;939;51.426;6.972;2023-04-24T15:07:47;2.00;;;1.15;;
1877;SDS011;939;51.426;6.972;2023-04-24T15:10:15;1.55;;;1.13;;
1877;SDS011;939;51.426;6.972;2023-04-24T15:12:42;1.10;;;0.85;;
1877;SDS011;939;51.426;6.972;2023-04-24T15:15:12;1.20;;;0.95;;
1877;SDS011;939;51.426;6.972;2023-04-24T15:17:38;1.80;;;1.70;;
1877;SDS011;939;51.426;6.972;2023-04-24T15:20:06;9.18;;;3.28;;
1877;SDS011;939;51.426;6.972;2023-04-24T15:22:34;2.40;;;1.85;;
1877;SDS011;939;51.426;6.972;2023-04-24T15:25:01;1.35;;;1.02;;
1877;SDS011;939;51.426;6.972;2023-04-24T15:27:44;2.10;;;1.63;;
1877;SDS011;939;51.426;6.972;2023-04-24T15:30:14;1.70;;;1.45;;
1877;SDS011;939;51.426;6.972;2023-04-24T15:32:41;4.88;;;1.55;;
1877;SDS011;939;51.426;6.972;2023-04-24T15:35:13;1.73;;;1.40;;
1877;SDS011;939;51.426;6.972;2023-04-24T15:37:48;2.22;;;1.60;;
1877;SDS011;939;51.426;6.972;2023-04-24T15:43:17;2.10;;;1.20;;
1877;SDS011;939;51.426;6.972;2023-04-24T15:45:45;1.40;;;1.10;;
1877;SDS011;939;51.426;6.972;2023-04-24T15:48:17;1.30;;;1.10;;
1877;SDS011;939;51.426;6.972;2023-04-24T15:50:45;1.80;;;1.57;;
1877;SDS011;939;51.426;6.972;2023-04-24T15:53:18;2.40;;;2.20;;